Ardmore, OK

4:44 AM CST on December 04, 2016 (GMT -0600)
Ardmore Airpark | | Change Station

Elev 732 ft 34.30 °N, 97.03 °W | Updated 5 minutes ago

Light Drizzle
Light Drizzle
46.0 °F
Feels Like 46 °F
N
1.0
Wind Variable Wind from NNW
Gusts 4.0 mph

Today
High -- | Low -- °F
--% Chance of Precip.
Yesterday
High -- | Low -- °F
Precip. -- in
Pressure 30.01 in
Visibility 10.0 miles
Clouds Mostly Cloudy 1300 ft
Overcast 2300 ft
Windchill 46 °F
Dew Point 45 °F
Humidity 95%
Rainfall 0.09 in
Snow Depth Not available.
7:19 AM 5:17 PM
Waxing Crescent, 21% visible
METAR KADM 041035Z AUTO 32004KT 10SM -DZ BKN013 OVC023 08/08 A3001 RMK AO2 P0003 T00760076
Pressure 30.01 in
Visibility 10.0 miles
Clouds Mostly Cloudy 1300 ft
Overcast 2300 ft
Windchill 46 °F
Dew Point 45 °F
Humidity 95%
Rainfall 0.09 in
Snow Depth Not available.
7:19 AM 5:17 PM
Waxing Crescent, 21% visible
METAR KADM 041035Z AUTO 32004KT 10SM -DZ BKN013 OVC023 08/08 A3001 RMK AO2 P0003 T00760076

10-Day Weather Forecast

Almanac

Astronomy

Dec. 04, 2016 Rise Set
Actual Time
Civil Twilight
Nautical Twilight
Astronomical Twilight
Moon
Length of Visible Light
Length of Day
Tomorrow will be .
, % of the Moon is Illuminated

Today's Extremes

State Highs State Lows

Community

WunderPhotos

Upload Photos

1,955,591 photos uploaded!

WunderBlog® & News

Nearby

Air Quality

  Air Quality AQ Index Pollutant
Not available.

Snow Depth

Station Depth Elevation

Earthquake Activity

City Distance Mag. Time & Date
Minimum magnitude displayed is 2.5.

Coastal Water Temperatures

Place Temperature

Stations

Nearby Weather Stations

Station Location Temp. Windchill Dew Point Humidity Wind Precip. Elev Updated Type
                   

Watches & Warnings

There are currently no watches in effect.